Terminal Aerodrome Forecast
Issued by NWS Sterling, VA

Home | Current Version | Previous Version | Text Only | Print | Product List | Glossary On
Versions: 1 2 3 4 5 6 7 8 9 10 11 12 13 14 15 16 17 18 19 20 21 22 23 24 25 26 27
000
FTUS41 KLWX 040542 RRA
TAFDCA
TAF
KDCA 040542Z 0406/0506 07004KT 6SM -SHRA OVC100
     FM040900 06005KT 5SM -SHRA BR OVC015
     FM041500 36008KT 5SM -SHRA OVC015
     FM041800 05005KT P6SM OVC025
     FM042300 09005KT P6SM BKN050
     FM050100 03005KT P6SM BKN050=

USA.gov is the U.S. government's official web portal to all federal, state and local government web resources and services.